createdAt,value
2018-12-17T00:00:33.470Z,66.05
2018-12-17T00:03:07.291Z,66.32
2018-12-17T00:05:41.849Z,66.01
2018-12-17T00:08:19.586Z,66.01
2018-12-17T00:10:53.327Z,66.18
2018-12-17T00:13:27.117Z,66.14
2018-12-17T00:16:00.872Z,66.09
2018-12-17T00:18:35.385Z,66.21
2018-12-17T00:21:09.146Z,66.19
2018-12-17T00:23:43.143Z,66.51
2018-12-17T00:26:17.202Z,66.35
2018-12-17T00:28:51.000Z,66.24
2018-12-17T00:31:24.784Z,66.14
2018-12-17T00:33:58.731Z,66.10
2018-12-17T00:36:32.762Z,66.34
2018-12-17T00:39:08.910Z,66.56
2018-12-17T00:41:42.994Z,66.22
2018-12-17T00:44:16.756Z,66.21
2018-12-17T00:46:51.273Z,66.53
2018-12-17T00:49:26.124Z,66.22
2018-12-17T00:51:59.857Z,66.92
2018-12-17T00:54:33.645Z,66.78
2018-12-17T00:57:07.392Z,66.34
2018-12-17T00:59:41.919Z,66.47
2018-12-17T01:02:15.736Z,66.39
2018-12-17T01:04:49.887Z,66.63
2018-12-17T01:07:32.637Z,66.45
2018-12-17T01:10:09.962Z,66.39
2018-12-17T01:12:44.436Z,66.07
2018-12-17T01:15:18.223Z,66.26
2018-12-17T01:17:51.952Z,66.29
2018-12-17T01:20:25.732Z,66.18
2018-12-17T01:22:59.528Z,66.09
2018-12-17T01:25:33.283Z,66.34
2018-12-17T01:28:07.081Z,66.43
2018-12-17T01:30:41.208Z,66.44
2018-12-17T01:33:14.971Z,66.17
2018-12-17T01:35:48.789Z,65.97
2018-12-17T01:38:22.516Z,65.90
2018-12-17T01:40:57.038Z,65.94
2018-12-17T01:43:30.849Z,66.03
2018-12-17T01:46:04.673Z,66.07
2018-12-17T01:48:38.703Z,65.78
2018-12-17T01:51:12.495Z,65.71
2018-12-17T01:53:47.049Z,65.83
2018-12-17T01:56:20.842Z,65.93
2018-12-17T01:58:55.337Z,65.85
2018-12-17T02:01:29.096Z,65.77
2018-12-17T02:04:02.884Z,66.16
2018-12-17T02:06:36.679Z,66.10
2018-12-17T02:09:11.136Z,66.12
2018-12-17T02:11:44.935Z,65.97
2018-12-17T02:14:18.713Z,66.13
2018-12-17T02:16:53.272Z,66.26
2018-12-17T02:19:27.067Z,66.15
2018-12-17T02:22:00.784Z,66.07
2018-12-17T02:24:34.936Z,66.06
2018-12-17T02:27:08.976Z,65.96
2018-12-17T02:29:42.773Z,66.07
2018-12-17T02:32:17.290Z,65.94
2018-12-17T02:34:51.072Z,65.77
2018-12-17T02:37:24.835Z,66.05
2018-12-17T02:39:59.596Z,66.17
2018-12-17T02:42:33.397Z,66.41
2018-12-17T02:45:07.563Z,66.86
2018-12-17T02:47:42.060Z,66.80
2018-12-17T02:50:15.801Z,66.84
2018-12-17T02:52:49.554Z,67.06
2018-12-17T02:55:23.324Z,67.42
2018-12-17T02:57:57.076Z,67.09
2018-12-17T03:00:31.153Z,67.10
2018-12-17T03:03:04.955Z,66.94
2018-12-17T03:05:39.118Z,67.43
2018-12-17T03:08:14.347Z,67.58
2018-12-17T03:10:48.072Z,67.24
2018-12-17T03:13:22.252Z,67.15
2018-12-17T03:15:55.997Z,67.16
2018-12-17T03:18:29.766Z,66.93
2018-12-17T03:21:03.590Z,66.87
2018-12-17T03:23:38.861Z,66.74
2018-12-17T03:26:13.306Z,67.11
2018-12-17T03:28:51.665Z,67.19
2018-12-17T03:31:21.163Z,67.30
2018-12-17T03:33:54.981Z,67.44
2018-12-17T03:36:28.821Z,67.46
2018-12-17T03:39:02.584Z,67.40
2018-12-17T03:41:36.346Z,67.32
2018-12-17T03:44:10.154Z,67.10
2018-12-17T03:46:44.208Z,67.12
2018-12-17T03:49:18.020Z,67.30
2018-12-17T03:51:51.808Z,67.22
2018-12-17T03:54:25.553Z,67.58
2018-12-17T03:57:00.161Z,67.53
2018-12-17T03:59:33.977Z,67.14
2018-12-17T04:02:07.740Z,67.05
2018-12-17T04:04:41.860Z,67.00
2018-12-17T04:07:15.658Z,67.00
2018-12-17T04:09:49.450Z,66.75
2018-12-17T04:12:23.190Z,66.85
2018-12-17T04:14:56.953Z,66.87
2018-12-17T04:17:30.903Z,67.00
2018-12-17T04:20:04.643Z,67.16
2018-12-17T04:22:39.513Z,66.85
2018-12-17T04:25:13.274Z,66.74
2018-12-17T04:27:48.152Z,66.58
2018-12-17T04:33:04.342Z,67.12
2018-12-17T04:38:19.851Z,66.66
2018-12-17T04:40:53.620Z,66.44
2018-12-17T04:43:28.506Z,66.64
2018-12-17T04:46:02.561Z,66.63
2018-12-17T04:48:37.053Z,66.67
2018-12-17T04:51:15.453Z,66.53
2018-12-17T04:53:49.240Z,66.42
2018-12-17T04:56:22.994Z,66.50
2018-12-17T05:01:38.396Z,66.80
2018-12-17T05:04:12.181Z,66.59
2018-12-17T05:06:45.911Z,66.24
2018-12-17T05:09:19.935Z,66.76
2018-12-17T05:11:54.443Z,66.36
2018-12-17T05:14:28.184Z,66.22
2018-12-17T05:17:02.004Z,66.22
2018-12-17T05:19:35.727Z,66.34
2018-12-17T05:22:09.494Z,66.38
2018-12-17T05:24:43.236Z,66.53
2018-12-17T05:29:58.407Z,66.86
2018-12-17T05:32:32.489Z,66.67
2018-12-17T05:37:47.136Z,66.37
2018-12-17T05:40:20.888Z,66.62
2018-12-17T05:42:54.955Z,66.79
2018-12-17T05:45:28.720Z,67.00
2018-12-17T05:48:02.517Z,66.82
2018-12-17T05:50:36.413Z,67.02
2018-12-17T05:53:11.201Z,67.26
2018-12-17T05:55:44.923Z,66.90
2018-12-17T05:58:19.660Z,67.03
2018-12-17T06:00:53.450Z,67.19
2018-12-17T06:03:27.488Z,67.11
2018-12-17T06:06:02.024Z,66.92
2018-12-17T06:08:35.813Z,66.49
2018-12-17T06:11:10.325Z,66.43
2018-12-17T06:13:44.808Z,66.37
2018-12-17T06:16:18.550Z,66.34
2018-12-17T06:18:52.340Z,66.90
2018-12-17T06:21:26.093Z,66.94
2018-12-17T06:23:59.866Z,66.92
2018-12-17T06:26:33.679Z,67.07
2018-12-17T06:29:08.235Z,66.86
2018-12-17T06:31:42.292Z,66.83
2018-12-17T06:34:16.037Z,66.89
2018-12-17T06:36:49.816Z,66.80
2018-12-17T06:39:23.648Z,67.28
2018-12-17T06:41:57.452Z,67.76
2018-12-17T06:44:31.993Z,67.77
2018-12-17T06:47:05.788Z,68.25
2018-12-17T06:49:39.611Z,68.49
2018-12-17T06:52:13.324Z,68.77
2018-12-17T06:54:47.124Z,68.21
2018-12-17T06:57:21.167Z,68.57
2018-12-17T06:59:54.929Z,69.11
2018-12-17T07:02:28.681Z,69.13
2018-12-17T07:07:42.276Z,69.13
2018-12-17T07:10:16.182Z,69.16
2018-12-17T07:12:50.803Z,68.91
2018-12-17T07:15:24.669Z,68.69
2018-12-17T07:17:58.684Z,68.99
2018-12-17T07:20:33.226Z,68.80
2018-12-17T07:23:06.961Z,69.09
2018-12-17T07:28:20.217Z,68.86
2018-12-17T07:30:53.984Z,69.28
2018-12-17T07:36:07.507Z,69.58
2018-12-17T07:38:41.261Z,69.74
2018-12-17T07:41:15.766Z,69.97
2018-12-17T07:46:32.193Z,70.20
2018-12-17T07:49:06.696Z,70.28
2018-12-17T07:51:40.827Z,70.26
2018-12-17T07:54:15.332Z,70.34
2018-12-17T07:56:49.093Z,70.45
2018-12-17T07:59:22.881Z,70.15
2018-12-17T08:01:56.640Z,70.17
2018-12-17T08:04:30.897Z,70.03
2018-12-17T08:07:05.377Z,69.99
2018-12-17T08:09:39.115Z,69.72
2018-12-17T08:12:13.625Z,70.14
2018-12-17T08:14:47.397Z,70.57
2018-12-17T08:17:21.212Z,70.93
2018-12-17T08:22:34.760Z,70.59
2018-12-17T08:25:09.762Z,70.56
2018-12-17T08:27:43.034Z,70.86
2018-12-17T08:30:17.505Z,71.25
2018-12-17T08:32:51.260Z,71.44
2018-12-17T08:38:05.316Z,71.05
2018-12-17T08:40:39.072Z,70.86
2018-12-17T08:43:12.891Z,70.81
2018-12-17T08:45:46.660Z,70.85
2018-12-17T08:48:20.437Z,70.96
2018-12-17T08:50:54.237Z,70.73
2018-12-17T08:53:27.986Z,70.83
2018-12-17T08:56:01.763Z,71.00
2018-12-17T09:01:15.080Z,71.45
2018-12-17T09:03:50.352Z,71.56
2018-12-17T09:06:24.841Z,71.44
2018-12-17T09:08:58.612Z,71.23
2018-12-17T09:11:32.382Z,71.15
2018-12-17T09:14:07.224Z,71.17
2018-12-17T09:16:41.345Z,71.12
2018-12-17T09:19:15.424Z,70.85
2018-12-17T09:21:49.159Z,70.92
2018-12-17T09:24:23.341Z,71.16
2018-12-17T09:26:57.861Z,71.52
2018-12-17T09:29:31.634Z,71.13
2018-12-17T09:34:45.205Z,70.95
2018-12-17T09:37:18.976Z,70.95
2018-12-17T09:39:52.711Z,71.17
2018-12-17T09:42:26.779Z,71.47
2018-12-17T09:45:00.557Z,71.68
2018-12-17T09:47:34.692Z,71.61
2018-12-17T09:50:09.503Z,71.50
2018-12-17T09:52:44.013Z,71.33
2018-12-17T09:55:18.068Z,71.60
2018-12-17T09:57:51.865Z,71.28
2018-12-17T10:00:25.876Z,71.13
2018-12-17T10:02:59.353Z,71.59
2018-12-17T10:05:36.638Z,71.56
2018-12-17T10:08:10.991Z,71.28
2018-12-17T10:10:44.731Z,70.96
2018-12-17T10:13:18.484Z,71.31
2018-12-17T10:15:52.977Z,71.72
2018-12-17T10:18:27.071Z,71.38
2018-12-17T10:21:00.848Z,71.61
2018-12-17T10:23:34.637Z,71.54
2018-12-17T10:26:08.486Z,71.40
2018-12-17T10:28:42.306Z,71.65
2018-12-17T10:31:16.033Z,71.65
2018-12-17T10:33:50.108Z,71.63
2018-12-17T10:36:23.821Z,71.40
2018-12-17T10:38:57.645Z,71.63
2018-12-17T10:41:31.405Z,71.42
2018-12-17T10:44:05.459Z,71.19
2018-12-17T10:46:39.218Z,71.26
2018-12-17T10:49:12.959Z,71.06
2018-12-17T10:51:46.757Z,70.78
2018-12-17T10:54:23.637Z,70.86
2018-12-17T10:56:57.378Z,71.04
2018-12-17T10:59:31.894Z,70.89
2018-12-17T11:02:22.933Z,70.79
2018-12-17T11:05:01.781Z,71.09
2018-12-17T11:07:35.640Z,71.17
2018-12-17T11:10:10.865Z,71.00
2018-12-17T11:12:44.632Z,70.65
2018-12-17T11:15:18.388Z,71.06
2018-12-17T11:17:52.248Z,70.29
2018-12-17T11:20:30.465Z,70.45
2018-12-17T11:23:05.397Z,70.95
2018-12-17T11:25:40.203Z,70.58
2018-12-17T11:28:14.004Z,70.72
2018-12-17T11:30:47.815Z,70.50
2018-12-17T11:33:21.609Z,70.60
2018-12-17T11:35:55.380Z,70.48
2018-12-17T11:38:29.134Z,70.25
2018-12-17T11:41:02.961Z,70.14
2018-12-17T11:43:43.636Z,70.30
2018-12-17T11:46:11.256Z,70.10
2018-12-17T11:48:45.753Z,69.95
2018-12-17T11:51:19.584Z,70.50
2018-12-17T11:53:53.355Z,70.49
2018-12-17T11:57:04.468Z,70.27
2018-12-17T11:59:38.892Z,70.74
2018-12-17T12:02:13.247Z,70.25
2018-12-17T12:07:28.424Z,70.43
2018-12-17T12:10:02.202Z,70.43
2018-12-17T12:12:36.746Z,70.32
2018-12-17T12:15:10.525Z,70.34
2018-12-17T12:17:45.318Z,70.23
2018-12-17T12:20:19.077Z,70.17
2018-12-17T12:22:52.849Z,69.74
2018-12-17T12:25:26.571Z,69.79
2018-12-17T12:28:01.057Z,69.68
2018-12-17T12:30:34.989Z,69.57
2018-12-17T12:33:09.457Z,69.56
2018-12-17T12:35:43.533Z,69.61
2018-12-17T12:38:17.337Z,69.45
2018-12-17T12:40:51.933Z,69.30
2018-12-17T12:43:25.708Z,69.49
2018-12-17T12:45:59.446Z,69.45
2018-12-17T12:48:33.295Z,69.94
2018-12-17T12:51:07.040Z,70.30
2018-12-17T12:53:41.369Z,70.43
2018-12-17T12:56:15.147Z,70.19
2018-12-17T12:58:48.958Z,69.97
2018-12-17T13:01:22.691Z,70.22
2018-12-17T13:03:56.447Z,69.97
2018-12-17T13:06:30.194Z,70.36
2018-12-17T13:09:04.528Z,69.90
2018-12-17T13:11:38.301Z,70.14
2018-12-17T13:14:12.835Z,70.31
2018-12-17T13:16:46.582Z,70.21
2018-12-17T13:19:20.505Z,69.94
2018-12-17T13:21:54.973Z,70.32
2018-12-17T13:24:28.769Z,70.37
2018-12-17T13:27:02.910Z,70.31
2018-12-17T13:29:36.640Z,70.27
2018-12-17T13:37:30.262Z,69.88
2018-12-17T13:40:04.079Z,69.72
2018-12-17T13:42:37.914Z,69.30
2018-12-17T13:47:51.198Z,69.34
2018-12-17T13:53:35.272Z,69.35
2018-12-17T13:56:09.769Z,69.29
2018-12-17T13:58:43.512Z,69.14
2018-12-17T14:01:21.835Z,69.39
2018-12-17T14:06:31.301Z,70.23
2018-12-17T14:09:05.211Z,70.72
2018-12-17T14:11:39.227Z,70.93
2018-12-17T14:17:19.940Z,70.85
2018-12-17T14:20:12.367Z,71.14
2018-12-17T14:22:46.123Z,70.90
2018-12-17T14:25:19.876Z,70.80
2018-12-17T14:30:33.445Z,70.09
2018-12-17T14:33:07.206Z,70.18
2018-12-17T14:36:01.335Z,70.05
2018-12-17T14:38:35.672Z,69.98
2018-12-17T14:41:09.441Z,70.08
2018-12-17T14:43:43.232Z,69.95
2018-12-17T14:46:17.013Z,70.46
2018-12-17T14:48:51.511Z,70.41
2018-12-17T14:54:06.940Z,70.75
2018-12-17T14:56:51.743Z,70.59
2018-12-17T14:59:29.567Z,70.75
2018-12-17T15:07:27.169Z,70.43
2018-12-17T15:10:02.444Z,70.46
2018-12-17T15:12:36.931Z,70.63
2018-12-17T15:17:53.495Z,70.81
2018-12-17T15:20:27.310Z,70.79
2018-12-17T15:23:01.690Z,70.49
2018-12-17T15:28:17.981Z,70.67
2018-12-17T15:30:51.710Z,70.52
2018-12-17T15:36:06.912Z,70.48
2018-12-17T15:38:41.716Z,70.49
2018-12-17T15:41:15.466Z,70.16
2018-12-17T15:46:31.569Z,70.04
2018-12-17T15:49:06.396Z,70.05
2018-12-17T15:51:41.201Z,70.01
2018-12-17T15:56:56.371Z,69.91
2018-12-17T15:59:30.163Z,70.36
2018-12-17T16:02:03.939Z,70.29
2018-12-17T16:07:18.696Z,70.46
2018-12-17T16:12:33.921Z,70.60
2018-12-17T16:17:47.515Z,70.66
2018-12-17T16:20:21.297Z,70.89
2018-12-17T16:22:55.060Z,70.73
2018-12-17T16:28:19.476Z,71.10
2018-12-17T16:30:53.967Z,71.05
2018-12-17T16:36:11.680Z,71.03
2018-12-17T16:38:45.490Z,70.87
2018-12-17T16:46:41.511Z,70.65
2018-12-17T16:49:15.628Z,70.62
2018-12-17T16:51:50.151Z,70.74
2018-12-17T16:57:07.469Z,70.83
2018-12-17T16:59:41.225Z,70.98
2018-12-17T17:02:15.016Z,70.92
2018-12-17T17:07:30.228Z,70.98
2018-12-17T17:10:07.406Z,70.92
2018-12-17T17:12:41.249Z,71.19
2018-12-17T17:17:56.410Z,71.32
2018-12-17T17:20:30.203Z,71.00
2018-12-17T17:23:04.286Z,71.12
2018-12-17T17:28:18.295Z,70.93
2018-12-17T17:30:52.458Z,70.73
2018-12-17T17:36:16.403Z,70.45
2018-12-17T17:38:50.304Z,70.52
2018-12-17T17:41:24.006Z,70.62
2018-12-17T17:46:43.581Z,70.73
2018-12-17T17:51:58.815Z,70.64
2018-12-17T17:57:12.476Z,70.50
2018-12-17T17:59:46.249Z,70.61
2018-12-17T18:02:19.998Z,70.58
2018-12-17T18:07:35.134Z,70.43
2018-12-17T18:10:11.045Z,70.41
2018-12-17T18:12:44.797Z,70.39
2018-12-17T18:18:00.926Z,69.79
2018-12-17T18:20:34.768Z,69.43
2018-12-17T18:23:08.531Z,69.62
2018-12-17T18:28:21.728Z,69.35
2018-12-17T18:30:55.500Z,69.70
2018-12-17T18:36:09.054Z,69.84
2018-12-17T18:38:42.841Z,69.72
2018-12-17T18:41:16.670Z,69.62
2018-12-17T18:46:40.463Z,69.30
2018-12-17T18:49:14.285Z,69.39
2018-12-17T18:51:48.849Z,69.38
2018-12-17T18:57:04.941Z,69.35
2018-12-17T18:59:39.279Z,69.39
2018-12-17T19:02:13.025Z,69.33
2018-12-17T19:07:26.264Z,69.32
2018-12-17T19:10:00.040Z,69.51
2018-12-17T19:12:33.784Z,69.60
2018-12-17T19:17:49.131Z,69.42
2018-12-17T19:20:24.240Z,69.43
2018-12-17T19:22:58.019Z,69.53
2018-12-17T19:28:14.300Z,69.42
2018-12-17T19:30:48.111Z,69.54
2018-12-17T19:33:22.168Z,69.58
2018-12-17T19:38:35.425Z,69.46
2018-12-17T19:41:09.248Z,69.32
2018-12-17T19:46:23.517Z,69.00
2018-12-17T19:48:58.010Z,69.15
2018-12-17T19:51:31.771Z,69.14
2018-12-17T19:56:47.271Z,69.79
2018-12-17T19:59:21.048Z,69.91
2018-12-17T20:01:55.560Z,69.75
2018-12-17T20:07:19.583Z,69.33
2018-12-17T20:09:54.124Z,69.23
2018-12-17T20:12:27.892Z,69.31
2018-12-17T20:17:43.080Z,69.46
2018-12-17T20:20:16.897Z,69.26
2018-12-17T20:22:51.438Z,69.41
2018-12-17T20:28:06.713Z,69.42
2018-12-17T20:36:16.933Z,69.46
2018-12-17T20:38:50.718Z,69.24
2018-12-17T20:41:25.220Z,69.25
2018-12-17T20:46:40.449Z,68.98
2018-12-17T20:49:14.246Z,68.84
2018-12-17T20:51:48.261Z,68.81
2018-12-17T20:57:03.450Z,69.46
2018-12-17T20:59:37.257Z,69.80
2018-12-17T21:02:11.007Z,69.92
2018-12-17T21:07:26.498Z,69.45
2018-12-17T21:10:00.300Z,69.21
2018-12-17T21:12:34.114Z,69.33
2018-12-17T21:17:50.714Z,69.20
2018-12-17T21:20:24.514Z,69.33
2018-12-17T21:22:58.838Z,69.61
2018-12-17T21:28:14.032Z,69.68
2018-12-17T21:30:47.835Z,69.73
2018-12-17T21:33:21.624Z,69.65
2018-12-17T21:38:34.909Z,69.47
2018-12-17T21:41:08.692Z,69.33
2018-12-17T21:46:23.928Z,68.87
2018-12-17T21:48:57.720Z,68.79
2018-12-17T21:51:31.500Z,68.60
2018-12-17T21:56:47.047Z,69.18
2018-12-17T21:59:20.860Z,69.10
2018-12-17T22:01:55.399Z,69.38
2018-12-17T22:04:29.161Z,69.14
2018-12-17T22:07:03.207Z,69.04
2018-12-17T22:09:37.760Z,69.46
2018-12-17T22:12:11.571Z,69.52
2018-12-17T22:14:45.850Z,69.66
2018-12-17T22:17:20.380Z,69.07
2018-12-17T22:19:54.880Z,68.98
2018-12-17T22:22:35.204Z,69.11
2018-12-17T22:25:08.973Z,69.27
2018-12-17T22:30:25.687Z,69.27
2018-12-17T22:32:59.476Z,69.42
2018-12-17T22:35:33.231Z,69.45
2018-12-17T22:40:48.639Z,69.44
2018-12-17T22:43:22.412Z,69.24
2018-12-17T22:45:56.892Z,69.21
2018-12-17T22:48:30.626Z,69.41
2018-12-17T22:51:05.433Z,69.62
2018-12-17T22:53:39.193Z,69.67
2018-12-17T22:56:12.991Z,69.79
2018-12-17T22:58:46.726Z,69.99
2018-12-17T23:01:20.448Z,69.92
2018-12-17T23:03:54.973Z,69.60
2018-12-17T23:06:28.694Z,69.19
2018-12-17T23:09:08.593Z,68.88
2018-12-17T23:12:38.481Z,68.73
2018-12-17T23:18:49.430Z,70.07
2018-12-17T23:24:05.220Z,69.77
2018-12-17T23:29:19.471Z,69.67
2018-12-17T23:31:56.675Z,69.56
2018-12-17T23:34:30.491Z,69.57
2018-12-17T23:37:04.274Z,69.56
2018-12-17T23:39:38.727Z,69.50
2018-12-17T23:42:12.500Z,69.14
2018-12-17T23:44:46.241Z,69.22
2018-12-17T23:47:19.992Z,69.29
2018-12-17T23:52:36.343Z,69.52
2018-12-17T23:57:54.075Z,68.95
